Wetterdaten: Woche 29.06.09 - 05.07.09 (KW27)
Datum Zeit Temperatur Luftfeuchte Luftdruck Niederschlag Wind Richtung Sonnenschein Solar Taupunkt Windchill Windben
29.06.2009 00:00 19.7 C 89 % 1014.2 hPa 3.4 l/m 0.9 km/h (0 Bft) W-NW 0.00 h 0 W/m 17.9 C 19.7 C 2.3 km/h (1 Bft)
29.06.2009 01:00 18.9 C 92 % 1014.5 hPa 2.4 l/m 0.5 km/h (0 Bft) NO 0.00 h 0 W/m 17.6 C 18.9 C 1.4 km/h (1 Bft)
29.06.2009 02:00 18.5 C 94 % 1014.3 hPa 0.0 l/m 0.1 km/h (0 Bft) S-SO 0.00 h 0 W/m 17.6 C 18.5 C 0.5 km/h (0 Bft)
29.06.2009 03:00 18.3 C 95 % 1014.2 hPa 0.0 l/m 0.3 km/h (0 Bft) S-SO 0.00 h 0 W/m 17.4 C 18.3 C 1.0 km/h (0 Bft)
29.06.2009 04:00 18.0 C 96 % 1014.4 hPa 0.0 l/m 0.0 km/h (0 Bft) N 0.00 h 0 W/m 17.3 C 18.0 C 0.0 km/h (0 Bft)
29.06.2009 05:00 17.7 C 97 % 1014.5 hPa 0.2 l/m 0.1 km/h (0 Bft) N-NW 0.00 h 8 W/m 17.1 C 17.7 C 0.1 km/h (0 Bft)
29.06.2009 06:00 17.6 C 97 % 1014.7 hPa 0.0 l/m 0.0 km/h (0 Bft) N-NW 0.00 h 42 W/m 17.1 C 17.6 C 0.5 km/h (0 Bft)
29.06.2009 07:00 17.9 C 97 % 1015.2 hPa 0.0 l/m 1.7 km/h (1 Bft) W 0.07 h 110 W/m 17.4 C 17.9 C 3.5 km/h (1 Bft)
29.06.2009 08:00 19.1 C 97 % 1015.2 hPa 0.0 l/m 1.1 km/h (1 Bft) N-NW 0.87 h 341 W/m 18.6 C 19.1 C 2.9 km/h (1 Bft)
29.06.2009 09:00 21.0 C 89 % 1015.2 hPa 0.0 l/m 0.7 km/h (0 Bft) W-NW 0.98 h 495 W/m 19.1 C 21.0 C 2.2 km/h (1 Bft)
29.06.2009 10:00 22.9 C 82 % 1015.1 hPa 0.0 l/m 1.5 km/h (1 Bft) W 1.00 h 677 W/m 19.6 C 22.9 C 3.3 km/h (1 Bft)
29.06.2009 11:00 24.2 C 74 % 1015.0 hPa 0.0 l/m 3.4 km/h (1 Bft) O-SO 0.90 h 721 W/m 19.3 C 24.2 C 5.7 km/h (1 Bft)
29.06.2009 12:00 25.6 C 63 % 1014.8 hPa 0.0 l/m 3.9 km/h (1 Bft) O-SO 1.00 h 877 W/m 18.0 C 25.6 C 7.1 km/h (2 Bft)
29.06.2009 13:00 25.6 C 62 % 1014.6 hPa 0.0 l/m 4.3 km/h (1 Bft) N-NW 0.37 h 459 W/m 17.8 C 25.6 C 7.9 km/h (2 Bft)
29.06.2009 14:00 22.6 C 71 % 1015.1 hPa 0.0 l/m 5.2 km/h (1 Bft) N-NW 0.00 h 154 W/m 17.0 C 22.6 C 8.5 km/h (2 Bft)
29.06.2009 15:00 22.7 C 73 % 1015.2 hPa 0.0 l/m 1.9 km/h (1 Bft) NW 0.00 h 232 W/m 17.7 C 22.7 C 3.8 km/h (1 Bft)
29.06.2009 16:00 23.7 C 73 % 1014.8 hPa 0.0 l/m 1.6 km/h (1 Bft) N-NW 0.17 h 320 W/m 18.6 C 23.7 C 3.2 km/h (1 Bft)
29.06.2009 17:00 26.6 C 63 % 1014.5 hPa 0.0 l/m 3.0 km/h (1 Bft) NW 1.00 h 659 W/m 19.0 C 26.6 C 6.4 km/h (2 Bft)
29.06.2009 18:00 26.5 C 59 % 1014.5 hPa 0.0 l/m 3.0 km/h (1 Bft) O-SO 0.98 h 369 W/m 17.7 C 26.5 C 6.1 km/h (2 Bft)
29.06.2009 19:00 25.8 C 61 % 1014.6 hPa 0.0 l/m 2.0 km/h (1 Bft) O 0.00 h 31 W/m 17.6 C 25.8 C 3.6 km/h (1 Bft)
29.06.2009 20:00 23.9 C 72 % 1015.1 hPa 0.0 l/m 0.4 km/h (0 Bft) W 0.40 h 64 W/m 18.4 C 23.9 C 1.2 km/h (1 Bft)
29.06.2009 21:00 22.9 C 77 % 1015.0 hPa 0.0 l/m 2.6 km/h (1 Bft) O-SO 0.28 h 26 W/m 18.6 C 22.9 C 4.1 km/h (1 Bft)
29.06.2009 22:00 21.3 C 83 % 1016.0 hPa 0.0 l/m 1.5 km/h (1 Bft) O-SO 0.00 h 0 W/m 18.3 C 21.3 C 2.7 km/h (1 Bft)
29.06.2009 23:00 20.5 C 86 % 1016.5 hPa 0.0 l/m 0.3 km/h (0 Bft) O-SO 0.00 h 0 W/m 18.0 C 20.5 C 1.1 km/h (1 Bft)
30.06.2009 00:00 19.8 C 88 % 1016.5 hPa 0.0 l/m 1.0 km/h (0 Bft) N-NO 0.00 h 0 W/m 17.8 C 19.8 C 2.4 km/h (1 Bft)
30.06.2009 01:00 18.9 C 91 % 1016.7 hPa 0.0 l/m 0.5 km/h (0 Bft) SO 0.00 h 0 W/m 17.4 C 18.9 C 1.4 km/h (1 Bft)
30.06.2009 02:00 18.3 C 93 % 1017.0 hPa 0.0 l/m 0.4 km/h (0 Bft) SO 0.00 h 0 W/m 17.1 C 18.3 C 1.1 km/h (0 Bft)
30.06.2009 03:00 17.5 C 94 % 1016.9 hPa 0.0 l/m 0.3 km/h (0 Bft) SO 0.00 h 0 W/m 16.4 C 17.5 C 0.9 km/h (0 Bft)
30.06.2009 04:00 16.8 C 95 % 1016.9 hPa 0.0 l/m 0.6 km/h (0 Bft) SO 0.00 h 0 W/m 16.0 C 16.8 C 1.6 km/h (1 Bft)
30.06.2009 05:00 16.4 C 96 % 1016.7 hPa 0.0 l/m 0.5 km/h (0 Bft) SO 0.00 h 9 W/m 15.8 C 16.4 C 1.2 km/h (1 Bft)
30.06.2009 06:00 16.2 C 97 % 1017.1 hPa 0.0 l/m 0.1 km/h (0 Bft) SO 0.00 h 41 W/m 15.7 C 16.2 C 0.7 km/h (0 Bft)
30.06.2009 07:00 17.4 C 98 % 1017.3 hPa 0.0 l/m 0.0 km/h (0 Bft) SO 0.73 h 169 W/m 17.0 C 17.4 C 0.2 km/h (0 Bft)
30.06.2009 08:00 20.1 C 92 % 1017.3 hPa 0.0 l/m 0.7 km/h (0 Bft) O-NO 1.00 h 324 W/m 18.8 C 20.1 C 2.2 km/h (1 Bft)
30.06.2009 09:00 22.2 C 77 % 1017.6 hPa 0.0 l/m 1.8 km/h (1 Bft) W-NW 1.00 h 486 W/m 17.9 C 22.2 C 3.8 km/h (1 Bft)
30.06.2009 10:00 24.4 C 69 % 1017.5 hPa 0.0 l/m 1.2 km/h (1 Bft) W 1.00 h 634 W/m 18.4 C 24.4 C 3.3 km/h (1 Bft)
30.06.2009 11:00 25.7 C 63 % 1017.3 hPa 0.0 l/m 2.4 km/h (1 Bft) O-SO 1.00 h 763 W/m 18.1 C 25.7 C 5.3 km/h (1 Bft)
30.06.2009 12:00 25.9 C 62 % 1017.1 hPa 0.0 l/m 1.4 km/h (1 Bft) O-SO 0.27 h 407 W/m 18.2 C 25.9 C 3.5 km/h (1 Bft)
30.06.2009 13:00 24.6 C 70 % 1017.1 hPa 0.0 l/m 2.1 km/h (1 Bft) N-NW 0.00 h 203 W/m 18.6 C 24.6 C 3.9 km/h (1 Bft)
30.06.2009 14:00 25.1 C 70 % 1017.0 hPa 0.0 l/m 6.4 km/h (2 Bft) N-NW 0.60 h 483 W/m 19.2 C 25.1 C 9.7 km/h (2 Bft)
30.06.2009 15:00 25.2 C 68 % 1016.7 hPa 0.0 l/m 6.0 km/h (2 Bft) N-NW 0.27 h 389 W/m 18.9 C 25.2 C 9.3 km/h (2 Bft)
30.06.2009 16:00 26.2 C 65 % 1016.7 hPa 0.0 l/m 5.9 km/h (2 Bft) N-NW 0.87 h 545 W/m 19.1 C 26.2 C 8.8 km/h (2 Bft)
30.06.2009 17:00 28.2 C 56 % 1016.5 hPa 0.0 l/m 6.2 km/h (2 Bft) N 1.00 h 610 W/m 18.7 C 28.2 C 9.9 km/h (2 Bft)
30.06.2009 18:00 28.2 C 55 % 1016.3 hPa 0.0 l/m 3.5 km/h (1 Bft) N-NO 1.00 h 375 W/m 18.4 C 28.2 C 6.9 km/h (2 Bft)
30.06.2009 19:00 27.0 C 58 % 1016.5 hPa 0.0 l/m 2.9 km/h (1 Bft) O-NO 0.85 h 175 W/m 17.9 C 27.0 C 6.4 km/h (2 Bft)
30.06.2009 20:00 25.6 C 64 % 1016.6 hPa 0.0 l/m 1.9 km/h (1 Bft) O-SO 0.07 h 51 W/m 18.3 C 25.6 C 4.1 km/h (1 Bft)
30.06.2009 21:00 23.5 C 69 % 1017.1 hPa 0.0 l/m 0.7 km/h (0 Bft) O-NO 0.00 h 8 W/m 17.4 C 23.5 C 2.7 km/h (1 Bft)
30.06.2009 22:00 22.0 C 72 % 1017.5 hPa 0.0 l/m 0.3 km/h (0 Bft) S-SO 0.00 h 0 W/m 16.8 C 22.0 C 1.1 km/h (0 Bft)
30.06.2009 23:00 20.4 C 78 % 1017.9 hPa 0.0 l/m 1.4 km/h (1 Bft) O-SO 0.00 h 0 W/m 16.5 C 20.4 C 2.4 km/h (1 Bft)
01.07.2009 00:00 19.0 C 83 % 1018.4 hPa 0.0 l/m 1.2 km/h (1 Bft) O-SO 0.00 h 0 W/m 16.1 C 19.0 C 1.9 km/h (1 Bft)
01.07.2009 01:00 18.3 C 87 % 1018.7 hPa 0.0 l/m 0.7 km/h (0 Bft) O-SO 0.00 h 0 W/m 16.0 C 18.3 C 1.5 km/h (1 Bft)
01.07.2009 02:00 17.8 C 90 % 1018.8 hPa 0.0 l/m 0.3 km/h (0 Bft) O-SO 0.00 h 0 W/m 16.1 C 17.8 C 0.9 km/h (0 Bft)
01.07.2009 03:00 17.4 C 91 % 1018.6 hPa 0.0 l/m 1.0 km/h (0 Bft) O-SO 0.00 h 0 W/m 16.0 C 17.4 C 1.8 km/h (1 Bft)
01.07.2009 04:00 17.0 C 93 % 1018.0 hPa 0.0 l/m 1.2 km/h (1 Bft) O-SO 0.00 h 0 W/m 15.9 C 17.0 C 1.9 km/h (1 Bft)
01.07.2009 05:00 16.4 C 94 % 1017.9 hPa 0.0 l/m 1.1 km/h (1 Bft) O-SO 0.03 h 10 W/m 15.4 C 16.4 C 2.2 km/h (1 Bft)
01.07.2009 06:00 16.4 C 95 % 1018.1 hPa 0.0 l/m 0.0 km/h (0 Bft) N 0.00 h 38 W/m 15.6 C 16.4 C 0.3 km/h (0 Bft)
01.07.2009 07:00 17.6 C 96 % 1018.4 hPa 0.0 l/m 0.0 km/h (0 Bft) N 0.77 h 167 W/m 16.9 C 17.6 C 0.1 km/h (0 Bft)
01.07.2009 08:00 20.7 C 87 % 1018.3 hPa 0.0 l/m 0.5 km/h (0 Bft) O-NO 0.95 h 309 W/m 18.4 C 20.7 C 1.8 km/h (1 Bft)
01.07.2009 09:00 22.9 C 74 % 1018.4 hPa 0.0 l/m 1.4 km/h (1 Bft) O-NO 1.00 h 466 W/m 18.1 C 22.9 C 3.4 km/h (1 Bft)
01.07.2009 10:00 24.4 C 68 % 1018.2 hPa 0.0 l/m 3.4 km/h (1 Bft) O-SO 1.00 h 617 W/m 18.2 C 24.4 C 6.1 km/h (2 Bft)
01.07.2009 11:00 26.2 C 64 % 1018.0 hPa 0.0 l/m 3.4 km/h (1 Bft) SO 1.00 h 765 W/m 18.7 C 26.2 C 6.2 km/h (2 Bft)
01.07.2009 12:00 27.3 C 59 % 1017.6 hPa 0.0 l/m 3.4 km/h (1 Bft) O-SO 0.87 h 814 W/m 18.5 C 27.3 C 6.6 km/h (2 Bft)
01.07.2009 13:00 26.6 C 61 % 1017.7 hPa 0.0 l/m 4.3 km/h (1 Bft) N 0.32 h 431 W/m 18.4 C 26.6 C 7.6 km/h (2 Bft)
01.07.2009 14:00 26.4 C 62 % 1017.1 hPa 0.0 l/m 4.3 km/h (1 Bft) W-NW 0.33 h 507 W/m 18.6 C 26.4 C 6.9 km/h (2 Bft)
01.07.2009 15:00 27.7 C 59 % 1016.6 hPa 0.0 l/m 6.1 km/h (2 Bft) N-NW 0.80 h 686 W/m 18.8 C 27.7 C 9.2 km/h (2 Bft)
01.07.2009 16:00 28.0 C 52 % 1016.6 hPa 0.0 l/m 5.1 km/h (1 Bft) N-NO 0.38 h 402 W/m 17.3 C 28.0 C 8.8 km/h (2 Bft)
01.07.2009 17:00 26.7 C 59 % 1016.8 hPa 0.0 l/m 4.6 km/h (1 Bft) N 0.28 h 285 W/m 17.9 C 26.7 C 8.8 km/h (2 Bft)
01.07.2009 18:00 25.5 C 59 % 1016.8 hPa 0.0 l/m 3.9 km/h (1 Bft) N-NO 0.00 h 161 W/m 17.0 C 25.5 C 8.1 km/h (2 Bft)
01.07.2009 19:00 24.9 C 63 % 1016.9 hPa 0.0 l/m 1.4 km/h (1 Bft) W-NW 0.07 h 116 W/m 17.3 C 24.9 C 3.5 km/h (1 Bft)
01.07.2009 20:00 24.3 C 65 % 1017.0 hPa 0.0 l/m 0.7 km/h (0 Bft) NW 0.00 h 34 W/m 17.4 C 24.3 C 1.7 km/h (1 Bft)
01.07.2009 21:00 22.4 C 72 % 1017.2 hPa 0.0 l/m 0.6 km/h (0 Bft) O-SO 0.00 h 9 W/m 17.2 C 22.4 C 1.1 km/h (1 Bft)
01.07.2009 22:00 20.7 C 79 % 1017.6 hPa 0.0 l/m 0.7 km/h (0 Bft) O-SO 0.00 h 0 W/m 16.9 C 20.7 C 1.4 km/h (1 Bft)
01.07.2009 23:00 19.4 C 85 % 1017.4 hPa 0.0 l/m 0.4 km/h (0 Bft) O-SO 0.00 h 0 W/m 16.7 C 19.4 C 1.1 km/h (1 Bft)
02.07.2009 00:00 18.4 C 88 % 1017.7 hPa 0.0 l/m 1.3 km/h (1 Bft) O-SO 0.00 h 0 W/m 16.5 C 18.4 C 2.6 km/h (1 Bft)
02.07.2009 01:00 17.7 C 91 % 1017.5 hPa 0.0 l/m 1.4 km/h (1 Bft) O-SO 0.00 h 0 W/m 16.2 C 17.7 C 2.5 km/h (1 Bft)
02.07.2009 02:00 17.3 C 92 % 1017.2 hPa 0.0 l/m 0.5 km/h (0 Bft) O-SO 0.00 h 0 W/m 16.0 C 17.3 C 1.2 km/h (1 Bft)
02.07.2009 03:00 16.8 C 94 % 1016.8 hPa 0.0 l/m 0.1 km/h (0 Bft) O-SO 0.00 h 0 W/m 15.8 C 16.8 C 0.6 km/h (0 Bft)
02.07.2009 04:00 16.3 C 95 % 1016.7 hPa 0.0 l/m 1.7 km/h (1 Bft) O-SO 0.00 h 0 W/m 15.5 C 16.3 C 3.1 km/h (1 Bft)
02.07.2009 05:00 15.9 C 97 % 1016.8 hPa 0.0 l/m 0.2 km/h (0 Bft) O-SO 0.03 h 10 W/m 15.4 C 15.9 C 0.6 km/h (0 Bft)
02.07.2009 06:00 15.8 C 97 % 1017.0 hPa 0.0 l/m 0.1 km/h (0 Bft) O 0.00 h 41 W/m 15.3 C 15.8 C 0.3 km/h (0 Bft)
02.07.2009 07:00 16.9 C 98 % 1017.0 hPa 0.0 l/m 0.0 km/h (0 Bft) O 0.60 h 159 W/m 16.6 C 16.9 C 0.6 km/h (0 Bft)
02.07.2009 08:00 19.3 C 97 % 1016.8 hPa 0.0 l/m 0.4 km/h (0 Bft) N-NW 1.00 h 313 W/m 18.7 C 19.3 C 1.6 km/h (1 Bft)
02.07.2009 09:00 21.6 C 83 % 1016.7 hPa 0.0 l/m 1.0 km/h (0 Bft) N-NW 1.00 h 472 W/m 18.5 C 21.6 C 2.5 km/h (1 Bft)
02.07.2009 10:00 24.2 C 72 % 1016.3 hPa 0.0 l/m 2.1 km/h (1 Bft) N-NW 1.00 h 615 W/m 18.8 C 24.2 C 4.2 km/h (1 Bft)
02.07.2009 11:00 26.2 C 64 % 1016.0 hPa 0.0 l/m 2.4 km/h (1 Bft) N-NO 1.00 h 732 W/m 18.8 C 26.2 C 5.0 km/h (1 Bft)
02.07.2009 12:00 27.6 C 59 % 1015.6 hPa 0.0 l/m 2.9 km/h (1 Bft) N 1.00 h 808 W/m 18.8 C 27.6 C 5.9 km/h (2 Bft)
02.07.2009 13:00 28.2 C 53 % 1015.0 hPa 0.0 l/m 3.8 km/h (1 Bft) O-SO 1.00 h 857 W/m 17.5 C 28.2 C 7.3 km/h (2 Bft)
02.07.2009 14:00 29.0 C 49 % 1014.2 hPa 0.0 l/m 3.0 km/h (1 Bft) SO 1.00 h 846 W/m 17.1 C 29.0 C 5.9 km/h (2 Bft)
02.07.2009 15:00 29.6 C 44 % 1013.8 hPa 0.0 l/m 4.4 km/h (1 Bft) O-SO 0.85 h 764 W/m 16.1 C 29.6 C 7.9 km/h (2 Bft)
02.07.2009 16:00 27.6 C 49 % 1013.9 hPa 0.0 l/m 6.9 km/h (2 Bft) N 0.63 h 453 W/m 16.0 C 27.6 C 13.2 km/h (3 Bft)
02.07.2009 17:00 26.0 C 57 % 1013.6 hPa 0.0 l/m 4.0 km/h (1 Bft) NW 0.47 h 322 W/m 16.9 C 26.0 C 7.1 km/h (2 Bft)
02.07.2009 18:00 26.8 C 56 % 1013.5 hPa 0.0 l/m 2.9 km/h (1 Bft) N-NW 0.88 h 376 W/m 17.2 C 26.8 C 5.8 km/h (2 Bft)
02.07.2009 19:00 27.1 C 53 % 1013.3 hPa 0.0 l/m 1.9 km/h (1 Bft) N-NW 0.43 h 163 W/m 16.6 C 27.1 C 4.6 km/h (1 Bft)
02.07.2009 20:00 26.2 C 57 % 1013.2 hPa 0.0 l/m 0.1 km/h (0 Bft) S-SW 0.27 h 62 W/m 17.1 C 26.2 C 1.1 km/h (1 Bft)
02.07.2009 21:00 24.3 C 66 % 1013.3 hPa 0.0 l/m 1.4 km/h (1 Bft) O 0.20 h 14 W/m 17.6 C 24.3 C 2.8 km/h (1 Bft)
02.07.2009 22:00 22.0 C 76 % 1013.8 hPa 0.0 l/m 2.3 km/h (1 Bft) O 0.00 h 0 W/m 17.6 C 22.0 C 3.7 km/h (1 Bft)
02.07.2009 23:00 20.6 C 81 % 1013.8 hPa 0.0 l/m 0.8 km/h (0 Bft) O 0.00 h 0 W/m 17.3 C 20.6 C 1.9 km/h (1 Bft)
03.07.2009 00:00 19.8 C 84 % 1013.7 hPa 0.0 l/m 1.6 km/h (1 Bft) O-SO 0.00 h 0 W/m 17.1 C 19.8 C 2.8 km/h (1 Bft)
03.07.2009 01:00 19.2 C 87 % 1013.4 hPa 0.0 l/m 0.4 km/h (0 Bft) O 0.00 h 0 W/m 16.9 C 19.2 C 1.2 km/h (1 Bft)
03.07.2009 02:00 18.5 C 88 % 1012.8 hPa 0.0 l/m 0.6 km/h (0 Bft) O 0.00 h 0 W/m 16.6 C 18.5 C 1.4 km/h (1 Bft)
03.07.2009 03:00 17.9 C 91 % 1012.7 hPa 0.0 l/m 1.5 km/h (1 Bft) O-SO 0.00 h 0 W/m 16.5 C 17.9 C 3.0 km/h (1 Bft)
03.07.2009 04:00 17.5 C 91 % 1013.0 hPa 0.0 l/m 0.7 km/h (0 Bft) O 0.00 h 0 W/m 16.0 C 17.5 C 1.4 km/h (1 Bft)
03.07.2009 05:00 17.1 C 93 % 1013.5 hPa 0.0 l/m 0.2 km/h (0 Bft) O 0.05 h 11 W/m 16.0 C 17.1 C 0.6 km/h (0 Bft)
03.07.2009 06:00 17.2 C 94 % 1013.8 hPa 0.0 l/m 0.2 km/h (0 Bft) O 0.00 h 33 W/m 16.2 C 17.2 C 0.9 km/h (0 Bft)
03.07.2009 07:00 18.2 C 93 % 1013.7 hPa 0.0 l/m 0.2 km/h (0 Bft) O 0.30 h 146 W/m 17.0 C 18.2 C 0.9 km/h (0 Bft)
03.07.2009 08:00 20.7 C 83 % 1013.7 hPa 0.0 l/m 1.7 km/h (1 Bft) O-SO 0.42 h 230 W/m 17.8 C 20.7 C 3.9 km/h (1 Bft)
03.07.2009 09:00 23.5 C 67 % 1013.6 hPa 0.0 l/m 6.9 km/h (2 Bft) W 1.00 h 481 W/m 17.1 C 23.5 C 12.0 km/h (2 Bft)
03.07.2009 10:00 24.6 C 64 % 1013.8 hPa 0.0 l/m 7.6 km/h (2 Bft) W 1.00 h 607 W/m 17.4 C 24.6 C 13.2 km/h (3 Bft)
03.07.2009 11:00 25.7 C 61 % 1013.7 hPa 0.0 l/m 8.6 km/h (2 Bft) W 0.85 h 703 W/m 17.6 C 25.7 C 14.4 km/h (3 Bft)
03.07.2009 12:00 26.5 C 60 % 1013.3 hPa 0.0 l/m 10.3 km/h (2 Bft) W 0.77 h 785 W/m 18.0 C 26.5 C 17.3 km/h (3 Bft)
03.07.2009 13:00 26.0 C 59 % 1013.3 hPa 0.0 l/m 10.7 km/h (2 Bft) W 0.58 h 606 W/m 17.4 C 26.0 C 17.0 km/h (3 Bft)
03.07.2009 14:00 26.9 C 59 % 1012.6 hPa 0.0 l/m 8.0 km/h (2 Bft) W 0.88 h 705 W/m 18.1 C 26.9 C 13.8 km/h (3 Bft)
03.07.2009 15:00 26.7 C 62 % 1012.8 hPa 0.0 l/m 4.6 km/h (1 Bft) S-SO 0.75 h 639 W/m 18.8 C 26.7 C 9.0 km/h (2 Bft)
03.07.2009 16:00 26.0 C 65 % 1012.4 hPa 0.0 l/m 3.7 km/h (1 Bft) S-SO 0.13 h 331 W/m 18.8 C 26.0 C 8.3 km/h (2 Bft)
03.07.2009 17:00 26.5 C 61 % 1012.2 hPa 0.0 l/m 4.7 km/h (1 Bft) W 0.28 h 283 W/m 18.3 C 26.5 C 9.6 km/h (2 Bft)
03.07.2009 18:00 20.7 C 79 % 1013.6 hPa 8.6 l/m 6.9 km/h (2 Bft) O-SO 0.30 h 162 W/m 16.8 C 20.7 C 13.3 km/h (3 Bft)
03.07.2009 19:00 19.4 C 90 % 1013.9 hPa 0.0 l/m 0.5 km/h (0 Bft) SW 0.00 h 77 W/m 17.8 C 19.4 C 1.5 km/h (1 Bft)
03.07.2009 20:00 18.9 C 91 % 1013.5 hPa 0.0 l/m 3.0 km/h (1 Bft) SO 0.03 h 43 W/m 17.4 C 18.9 C 5.0 km/h (1 Bft)
03.07.2009 21:00 18.5 C 93 % 1013.4 hPa 0.0 l/m 2.3 km/h (1 Bft) O-SO 0.02 h 10 W/m 17.2 C 18.5 C 4.2 km/h (1 Bft)
03.07.2009 22:00 18.0 C 94 % 1013.9 hPa 0.0 l/m 3.6 km/h (1 Bft) O-SO 0.00 h 0 W/m 17.0 C 18.0 C 5.4 km/h (1 Bft)
03.07.2009 23:00 17.7 C 95 % 1013.7 hPa 0.0 l/m 1.4 km/h (1 Bft) O-SO 0.00 h 0 W/m 16.9 C 17.7 C 2.4 km/h (1 Bft)
04.07.2009 00:00 17.4 C 96 % 1013.7 hPa 0.0 l/m 0.5 km/h (0 Bft) O-SO 0.00 h 0 W/m 16.8 C 17.4 C 1.1 km/h (0 Bft)
04.07.2009 01:00 17.1 C 97 % 1013.7 hPa 0.0 l/m 0.2 km/h (0 Bft) O-SO 0.00 h 0 W/m 16.6 C 17.1 C 0.7 km/h (0 Bft)
04.07.2009 02:00 17.3 C 97 % 1013.3 hPa 0.0 l/m 0.0 km/h (0 Bft) N-NO 0.00 h 0 W/m 16.8 C 17.3 C 0.3 km/h (0 Bft)
04.07.2009 03:00 17.3 C 98 % 1012.9 hPa 0.0 l/m 0.3 km/h (0 Bft) N 0.00 h 0 W/m 16.9 C 17.3 C 1.2 km/h (1 Bft)
04.07.2009 04:00 17.1 C 98 % 1012.8 hPa 0.0 l/m 0.7 km/h (0 Bft) N 0.00 h 0 W/m 16.8 C 17.1 C 1.8 km/h (1 Bft)
04.07.2009 05:00 16.8 C 98 % 1013.1 hPa 0.0 l/m 0.9 km/h (0 Bft) W-NW 0.00 h 5 W/m 16.5 C 16.8 C 2.5 km/h (1 Bft)
04.07.2009 06:00 16.5 C 98 % 1013.3 hPa 0.0 l/m 1.1 km/h (0 Bft) W-NW 0.00 h 18 W/m 16.2 C 16.5 C 2.7 km/h (1 Bft)
04.07.2009 07:00 16.6 C 98 % 1013.4 hPa 0.0 l/m 0.1 km/h (0 Bft) W-NW 0.00 h 56 W/m 16.3 C 16.6 C 0.7 km/h (0 Bft)
04.07.2009 08:00 17.1 C 99 % 1013.4 hPa 0.2 l/m 0.6 km/h (0 Bft) W-NW 0.00 h 125 W/m 17.0 C 17.1 C 2.0 km/h (1 Bft)
04.07.2009 09:00 18.1 C 99 % 1013.3 hPa 0.0 l/m 0.8 km/h (0 Bft) W-NW 0.13 h 257 W/m 17.9 C 18.1 C 2.2 km/h (1 Bft)
04.07.2009 10:00 20.7 C 90 % 1012.9 hPa 0.0 l/m 2.0 km/h (1 Bft) W-NW 0.82 h 575 W/m 19.0 C 20.7 C 4.1 km/h (1 Bft)
04.07.2009 11:00 23.9 C 78 % 1012.2 hPa 0.0 l/m 1.5 km/h (1 Bft) W 1.00 h 718 W/m 19.8 C 23.9 C 3.6 km/h (1 Bft)
04.07.2009 12:00 26.0 C 57 % 1011.8 hPa 0.0 l/m 3.3 km/h (1 Bft) O-SO 1.00 h 853 W/m 16.6 C 26.0 C 6.5 km/h (2 Bft)
04.07.2009 13:00 27.3 C 51 % 1011.2 hPa 0.0 l/m 2.6 km/h (1 Bft) O-SO 1.00 h 929 W/m 16.3 C 27.3 C 5.3 km/h (1 Bft)
04.07.2009 14:00 27.0 C 53 % 1010.6 hPa 0.0 l/m 6.1 km/h (2 Bft) N-NW 0.47 h 560 W/m 16.7 C 27.0 C 10.5 km/h (2 Bft)
04.07.2009 15:00 24.0 C 62 % 1010.7 hPa 0.0 l/m 7.5 km/h (2 Bft) NW 0.10 h 287 W/m 16.2 C 24.0 C 12.1 km/h (2 Bft)
04.07.2009 16:00 23.9 C 63 % 1010.4 hPa 0.0 l/m 4.5 km/h (1 Bft) NW 0.35 h 347 W/m 16.4 C 23.9 C 7.2 km/h (2 Bft)
04.07.2009 17:00 26.6 C 55 % 1009.9 hPa 0.0 l/m 2.4 km/h (1 Bft) N-NW 1.00 h 552 W/m 16.7 C 26.6 C 4.5 km/h (1 Bft)
04.07.2009 18:00 27.5 C 48 % 1009.6 hPa 0.0 l/m 1.8 km/h (1 Bft) W-NW 0.62 h 268 W/m 15.5 C 27.5 C 3.6 km/h (1 Bft)
04.07.2009 19:00 25.5 C 58 % 1010.1 hPa 0.0 l/m 4.9 km/h (1 Bft) O-SO 0.00 h 38 W/m 16.6 C 25.5 C 8.5 km/h (2 Bft)
04.07.2009 20:00 22.5 C 69 % 1011.4 hPa 0.0 l/m 2.2 km/h (1 Bft) O-SO 0.00 h 29 W/m 16.5 C 22.5 C 4.2 km/h (1 Bft)
04.07.2009 21:00 20.5 C 84 % 1011.6 hPa 0.4 l/m 0.1 km/h (0 Bft) SO 0.07 h 12 W/m 17.7 C 20.5 C 0.9 km/h (0 Bft)
04.07.2009 22:00 19.1 C 89 % 1011.9 hPa 0.0 l/m 1.4 km/h (1 Bft) SO 0.00 h 0 W/m 17.2 C 19.1 C 3.2 km/h (1 Bft)
04.07.2009 23:00 18.3 C 92 % 1012.0 hPa 0.0 l/m 0.3 km/h (0 Bft) SO 0.00 h 0 W/m 17.0 C 18.3 C 1.1 km/h (1 Bft)
05.07.2009 00:00 17.8 C 93 % 1011.8 hPa 0.0 l/m 0.5 km/h (0 Bft) SO 0.00 h 0 W/m 16.7 C 17.8 C 1.4 km/h (1 Bft)
05.07.2009 01:00 17.1 C 94 % 1011.5 hPa 0.0 l/m 0.1 km/h (0 Bft) SO 0.00 h 0 W/m 16.1 C 17.1 C 0.2 km/h (0 Bft)
05.07.2009 02:00 16.7 C 96 % 1011.4 hPa 0.0 l/m 0.0 km/h (0 Bft) SO 0.00 h 0 W/m 16.0 C 16.7 C 0.6 km/h (0 Bft)
05.07.2009 03:00 16.8 C 97 % 1011.3 hPa 0.0 l/m 1.3 km/h (1 Bft) O-SO 0.00 h 0 W/m 16.3 C 16.8 C 2.3 km/h (1 Bft)
05.07.2009 04:00 16.5 C 97 % 1011.0 hPa 0.0 l/m 1.7 km/h (1 Bft) O-SO 0.00 h 0 W/m 16.0 C 16.5 C 3.5 km/h (1 Bft)
05.07.2009 05:00 16.2 C 98 % 1011.0 hPa 0.0 l/m 0.3 km/h (0 Bft) O-SO 0.00 h 7 W/m 15.9 C 16.2 C 1.2 km/h (1 Bft)
05.07.2009 06:00 16.4 C 99 % 1010.7 hPa 0.0 l/m 0.4 km/h (0 Bft) O-SO 0.00 h 29 W/m 16.3 C 16.4 C 1.4 km/h (1 Bft)
05.07.2009 07:00 16.6 C 99 % 1010.9 hPa 0.0 l/m 0.2 km/h (0 Bft) O-SO 0.00 h 56 W/m 16.4 C 16.6 C 1.1 km/h (1 Bft)
05.07.2009 08:00 17.1 C 99 % 1011.2 hPa 0.0 l/m 0.4 km/h (0 Bft) O 0.28 h 209 W/m 16.9 C 17.1 C 1.7 km/h (1 Bft)
05.07.2009 09:00 19.1 C 95 % 1011.2 hPa 0.0 l/m 0.4 km/h (0 Bft) S-SW 0.35 h 310 W/m 18.2 C 19.1 C 1.9 km/h (1 Bft)
05.07.2009 10:00 21.9 C 80 % 1010.8 hPa 0.0 l/m 1.7 km/h (1 Bft) W-NW 0.90 h 557 W/m 18.3 C 21.9 C 3.5 km/h (1 Bft)
05.07.2009 11:00 23.3 C 73 % 1010.4 hPa 0.0 l/m 2.1 km/h (1 Bft) W-NW 0.95 h 553 W/m 18.2 C 23.3 C 4.0 km/h (1 Bft)
05.07.2009 12:00 25.5 C 65 % 1009.8 hPa 0.0 l/m 2.6 km/h (1 Bft) W-NW 1.00 h 839 W/m 18.4 C 25.5 C 5.2 km/h (1 Bft)
05.07.2009 13:00 26.9 C 61 % 1008.9 hPa 0.0 l/m 3.6 km/h (1 Bft) W-NW 0.82 h 777 W/m 18.7 C 26.9 C 6.3 km/h (2 Bft)
05.07.2009 14:00 27.6 C 52 % 1008.5 hPa 0.0 l/m 6.8 km/h (2 Bft) W 0.77 h 777 W/m 16.7 C 27.6 C 12.2 km/h (2 Bft)
05.07.2009 15:00 27.3 C 50 % 1008.4 hPa 0.0 l/m 9.4 km/h (2 Bft) N-NW 1.00 h 839 W/m 15.9 C 27.3 C 15.3 km/h (3 Bft)
05.07.2009 16:00 27.9 C 46 % 1008.0 hPa 0.0 l/m 5.3 km/h (1 Bft) W 0.92 h 603 W/m 15.1 C 27.9 C 7.8 km/h (2 Bft)
05.07.2009 17:00 28.3 C 46 % 1007.4 hPa 0.0 l/m 3.9 km/h (1 Bft) N-NW 0.65 h 439 W/m 15.5 C 28.3 C 6.6 km/h (2 Bft)
05.07.2009 18:00 27.0 C 49 % 1007.4 hPa 0.0 l/m 4.5 km/h (1 Bft) N-NW 0.20 h 147 W/m 15.2 C 27.0 C 7.8 km/h (2 Bft)
05.07.2009 19:00 25.3 C 58 % 1007.7 hPa 0.0 l/m 6.1 km/h (2 Bft) O-SO 0.00 h 47 W/m 16.3 C 25.3 C 11.6 km/h (2 Bft)
05.07.2009 20:00 20.0 C 84 % 1008.7 hPa 6.2 l/m 9.0 km/h (2 Bft) O-SO 0.00 h 5 W/m 17.1 C 20.0 C 12.0 km/h (2 Bft)
05.07.2009 21:00 18.5 C 91 % 1009.9 hPa 12.0 l/m 5.0 km/h (1 Bft) S-SO 0.00 h 0 W/m 17.1 C 18.5 C 8.5 km/h (2 Bft)
05.07.2009 22:00 17.3 C 93 % 1010.4 hPa 4.8 l/m 1.9 km/h (1 Bft) S-SO 0.00 h 0 W/m 16.2 C 17.3 C 3.8 km/h (1 Bft)
05.07.2009 23:00 17.2 C 96 % 1010.3 hPa 0.0 l/m 2.6 km/h (1 Bft) S-SO 0.00 h 0 W/m 16.5 C 17.2 C 5.2 km/h (1 Bft)
Min-Datum _ 02.07.09 05.07.09 05.07.09 - 29.06.09 - - - 05.07.09 02.07.09 29.06.09
_ Min-Zeit 06:00 16:31 17:45 - 00:00 - - - 16:31 05:27 00:05
Minimum _ 15.7 C 38 % 1007.2 hPa - 0.0 km/h (0 Bft) - - - 12.6 C 15.8 C 0.0 km/h (0 Bft)
Max-Datum _ 02.07.09 05.07.09 01.07.09 05.07.09 03.07.09 - 29.06.09 03.07.09 04.07.09 02.07.09 03.07.09
_ Max-Zeit 15:56 23:34 02:30 21:24 18:18 - 07:56 14:33 11:39 15:55 17:55
Maximum _ 30.7 C 100 % 1018.9 hPa 12.0 l/m 20.9 km/h
O-SO (4 Bft)
- 0.02 h 1042 W/m 20.8 C 30.7 C 33.0 km/h
W (5 Bft)
Durchschnitt _ 21.7 C 78 % 1014.3 hPa #38.2 l/m 2.3 km/h (1 Bft) O-SO #58:35 h 354 W/m 17.3 C 21.7 C 4.4 km/h (1 Bft)
© Kaiko 2009